Tempo Aeroporto - Stazione meteorologica di Pomezia (RM)


   

Webcam Castelli Romani more information Webcam Castelli Romani


Webcam Traffico live more information Webcam Traffico live


altri nostri siti meteo:

Pomeziameteo 1Sito sul meteo

Pomeziameteo DashboardSito sul meteo

Caput FrigorisSito sul meteo

BarcellonameteoSito sul meteo

MeteoipassiSito sul meteo

ViterbometeoSito sul meteo

TortoretometeolidoSito sul meteo

MeteospinacetoSito sul meteo

MeteoardeaSito sul meteo

MeteopalestrinaSito sul meteo

MeteocastelliSito sul meteo

MeteoiserniaSito sul meteo

RomaeurmeteoSito sul meteo

MeteomarconiaSito sul meteo

CastelnuovovomanometeoSito sul meteo

MeteogonzagaSito sul meteo

MeteonetworkInvio dai a Meteonetwork

Rete Linea MeteoInvio dai a Meteonetwork



Nessuna attenzione particolare richiesta.    Non ci sono allerte meteo

Report METAR

   
LIRE - Pratica di mare
Dati ricevuti: 16-08-2018 20:55
Parzialmente nuvoloso  
Parzialmente nuvoloso  
   Vento: Nord 13 km/h
Vento: Nord 13 km/h
Temperatura: 24°C
P.to Rugiada: 22°C
Umidita: 89%
Barometro: 1012 hPa
Nuvole: Parzialmente nuvoloso
Visibilita: oltre 10 km
dettagli cloud: Parzialmente nuvoloso 3000 ft,
Parzialmente nuvoloso 7000 ft
LIRE 161855Z 01007KT 9999 SCT030 SCT070 24/22 Q1012 RMK BKN VIS MIN 9999 WIND THR13 02006KT WIND THR31 /////KT BLU
LIRF - Fiumicino
Dati ricevuti: 16-08-2018 21:20
Deboli piogge, Poche nuvole  
Deboli piogge, Poche nuvole  
   Vento: Oriente 13 km/h
Vento: Oriente 13 km/h
Temperatura: 24°C
P.to Rugiada: 18°C
Umidita: 69%
Barometro: 1013 hPa
Nuvole: Poche nuvole
Visibilita: oltre 10 km
dettagli cloud: Poche nuvole 4000 ft
LIRF 161920Z 10007KT 060V140 9999 -DZ FEW040 24/18 Q1013 NOSIG
LIRA - Ciampino
Dati ricevuti: 16-08-2018 21:20
Sereno  
Sereno  
   Vento: NE 13 km/h
Vento: NE 13 km/h
Temperatura: 21°C
P.to Rugiada: 18°C
Umidita: 83%
Barometro: 1013 hPa
Visibilita: oltre 10 km
dettagli cloud: Sereno
LIRA 161920Z 04007KT CAVOK 21/18 Q1013
LIRL - Latina
Dati ricevuti: 10-08-2018 19:55
DATI Obsoleti
Sereno  
Sereno  
   Vento: West 9.3 km/h
Vento: West 9.3 km/h
Temperatura: 30°C
Indice di Calore: 32°C
P.to Rugiada: 20°C
Umidita: 55%
Barometro: 1017 hPa
Visibilita: oltre 10 km
dettagli cloud: Sereno
LIRL 101755Z 28005KT CAVOK 30/20 Q1017
  

Script sviluppato da  Saratoga-weather.org Adattato per il modello da  Weerstation Leuven

Potete trovare le nostre info meteo anche a:

UK Metoffice

European Weather Network

Weather Underground

AWEKAS

Citizen Weather Observer Program (CWOP)

HAMweather, WeatherForYou, PWS Weather

Strumentazione usata:

Stazione meteo
Davis VP2

Programma gestore dati meteo
WVIEW

Server per i dati meteo
Pc-WDS5

Provider
PC-HP-6005

Davis VP2

WVIEW

Pc-WDS5

PC-HP-6005